createdAt,value
2019-04-29T00:00:46.671Z,11.50
2019-04-29T00:03:15.499Z,8.10
2019-04-29T00:05:44.001Z,7.25
2019-04-29T00:08:12.524Z,6.30
2019-04-29T00:10:40.983Z,4.80
2019-04-29T00:13:09.523Z,6.53
2019-04-29T00:15:46.827Z,6.20
2019-04-29T00:18:19.486Z,6.07
2019-04-29T00:20:49.513Z,4.05
2019-04-29T00:23:17.953Z,4.60
2019-04-29T00:25:46.338Z,6.43
2019-04-29T00:28:15.606Z,7.58
2019-04-29T00:30:45.604Z,5.72
2019-04-29T00:33:14.027Z,8.00
2019-04-29T00:35:42.513Z,4.80
2019-04-29T00:38:21.473Z,3.83
2019-04-29T00:40:51.534Z,5.80
2019-04-29T00:43:37.967Z,6.17
2019-04-29T00:46:06.750Z,6.65
2019-04-29T00:48:35.309Z,7.72
2019-04-29T00:51:04.483Z,9.93
2019-04-29T00:53:32.860Z,7.92
2019-04-29T00:56:02.691Z,9.33
2019-04-29T00:58:31.081Z,9.30
2019-04-29T01:00:59.569Z,11.38
2019-04-29T01:03:28.902Z,8.60
2019-04-29T01:05:57.354Z,10.18
2019-04-29T01:08:25.975Z,9.83
2019-04-29T01:10:54.448Z,15.03
2019-04-29T01:13:23.087Z,14.20
2019-04-29T01:15:52.995Z,15.15
2019-04-29T01:18:21.636Z,11.13
2019-04-29T01:20:50.097Z,11.93
2019-04-29T01:23:18.501Z,13.95
2019-04-29T01:25:48.575Z,16.27
2019-04-29T01:28:21.424Z,13.35
2019-04-29T01:30:55.490Z,13.55
2019-04-29T01:33:24.027Z,15.20
2019-04-29T01:35:54.112Z,16.00
2019-04-29T01:38:22.476Z,8.60
2019-04-29T01:41:01.144Z,7.17
2019-04-29T01:43:47.742Z,10.93
2019-04-29T01:46:16.153Z,13.28
2019-04-29T01:48:44.519Z,7.78
2019-04-29T01:51:13.090Z,8.28
2019-04-29T01:53:41.469Z,10.00
2019-04-29T01:56:09.853Z,9.23
2019-04-29T01:58:38.355Z,8.18
2019-04-29T02:01:06.805Z,8.83
2019-04-29T02:03:35.313Z,8.83
2019-04-29T02:06:04.490Z,9.55
2019-04-29T02:08:32.811Z,6.75
2019-04-29T02:11:01.187Z,11.80
2019-04-29T02:13:29.586Z,10.70
2019-04-29T02:15:57.974Z,9.98
2019-04-29T02:18:26.372Z,15.25
2019-04-29T02:20:54.788Z,13.80
2019-04-29T02:23:39.536Z,10.88
2019-04-29T02:26:08.118Z,10.23
2019-04-29T02:28:36.522Z,12.35
2019-04-29T02:31:22.386Z,14.35
2019-04-29T02:33:50.775Z,14.20
2019-04-29T02:36:19.155Z,11.30
2019-04-29T02:38:53.384Z,10.80
2019-04-29T02:41:29.967Z,16.10
2019-04-29T02:43:59.964Z,12.68
2019-04-29T02:46:28.398Z,13.70
2019-04-29T02:48:56.953Z,17.50
2019-04-29T02:51:43.156Z,12.65
2019-04-29T02:54:11.730Z,15.80
2019-04-29T02:56:41.778Z,18.10
2019-04-29T02:59:14.504Z,16.05
2019-04-29T03:01:46.344Z,22.48
2019-04-29T03:04:16.463Z,21.10
2019-04-29T03:06:46.461Z,20.32
2019-04-29T03:09:14.827Z,26.97
2019-04-29T03:11:43.387Z,23.07
2019-04-29T03:14:11.933Z,26.80
2019-04-29T03:16:40.523Z,23.17
2019-04-29T03:19:16.405Z,22.72
2019-04-29T03:21:55.055Z,39.03
2019-04-29T03:24:24.941Z,33.92
2019-04-29T03:26:53.312Z,26.20
2019-04-29T03:29:24.821Z,19.23
2019-04-29T03:31:53.980Z,40.15
2019-04-29T03:34:23.913Z,29.50
2019-04-29T03:36:52.409Z,25.12
2019-04-29T03:39:21.178Z,26.60
2019-04-29T03:41:51.278Z,19.82
2019-04-29T03:44:19.651Z,22.80
2019-04-29T03:46:48.005Z,36.53
2019-04-29T03:49:16.496Z,25.37
2019-04-29T03:51:44.957Z,21.50
2019-04-29T03:54:14.853Z,23.47
2019-04-29T03:56:44.799Z,18.03
2019-04-29T03:59:13.261Z,36.30
2019-04-29T04:01:43.297Z,46.85
2019-04-29T04:04:13.357Z,30.20
2019-04-29T04:06:52.736Z,44.20
2019-04-29T04:09:22.756Z,20.02
2019-04-29T04:11:51.120Z,25.65
2019-04-29T04:14:19.747Z,22.45
2019-04-29T04:17:04.555Z,37.30
2019-04-29T04:19:34.002Z,28.70
2019-04-29T04:22:02.517Z,23.10
2019-04-29T04:24:30.966Z,27.17
2019-04-29T04:26:59.331Z,18.90
2019-04-29T04:29:27.714Z,18.85
2019-04-29T04:31:56.577Z,16.07
2019-04-29T04:34:25.092Z,22.82
2019-04-29T04:36:53.444Z,15.38
2019-04-29T04:39:25.973Z,19.57
2019-04-29T04:41:54.620Z,15.50
2019-04-29T04:44:24.771Z,14.40
2019-04-29T04:46:53.138Z,20.08
2019-04-29T04:49:21.527Z,14.30
2019-04-29T04:51:50.252Z,20.15
2019-04-29T04:54:18.651Z,17.05
2019-04-29T04:56:47.023Z,18.60
2019-04-29T04:59:15.422Z,15.25
2019-04-29T05:01:43.974Z,19.90
2019-04-29T05:04:12.465Z,12.63
2019-04-29T05:06:40.882Z,23.55
2019-04-29T05:09:09.348Z,23.27
2019-04-29T05:11:37.931Z,24.67
2019-04-29T05:14:06.325Z,32.53
2019-04-29T05:16:34.691Z,18.40
2019-04-29T05:19:03.065Z,28.77
2019-04-29T05:21:31.460Z,27.15
2019-04-29T05:23:59.839Z,18.90
2019-04-29T05:26:28.243Z,33.00
2019-04-29T05:28:56.626Z,25.68
2019-04-29T05:31:25.018Z,25.27
2019-04-29T05:33:53.586Z,19.57
2019-04-29T05:36:39.578Z,19.75
2019-04-29T05:39:21.370Z,22.82
2019-04-29T05:41:51.716Z,19.80
2019-04-29T05:44:24.668Z,22.62
2019-04-29T05:47:00.169Z,18.23
2019-04-29T05:49:41.760Z,14.43
2019-04-29T05:52:26.073Z,20.27
2019-04-29T05:54:54.524Z,32.10
2019-04-29T05:57:25.407Z,20.88
2019-04-29T05:59:53.055Z,21.90
2019-04-29T06:02:24.061Z,22.65
2019-04-29T06:04:52.487Z,19.70
2019-04-29T06:07:23.551Z,17.32
2019-04-29T06:09:51.864Z,23.50
2019-04-29T06:12:20.467Z,17.13
2019-04-29T06:14:48.881Z,22.07
2019-04-29T06:17:17.324Z,20.57
2019-04-29T06:19:47.329Z,17.87
2019-04-29T06:22:15.747Z,17.85
2019-04-29T06:24:44.113Z,19.62
2019-04-29T06:27:13.353Z,17.55
2019-04-29T06:29:41.745Z,14.28
2019-04-29T06:32:10.418Z,13.72
2019-04-29T06:34:40.183Z,11.53
2019-04-29T06:37:10.612Z,12.16
2019-04-29T06:39:39.028Z,12.55
2019-04-29T06:42:07.519Z,12.75
2019-04-29T06:44:35.899Z,10.65
2019-04-29T06:47:04.453Z,11.35
2019-04-29T06:49:32.919Z,8.00
2019-04-29T06:52:01.302Z,8.28
2019-04-29T06:54:29.766Z,9.65
2019-04-29T06:56:58.247Z,13.90
2019-04-29T06:59:26.779Z,12.47
2019-04-29T07:01:55.171Z,11.45
2019-04-29T07:04:23.608Z,16.10
2019-04-29T07:06:57.551Z,14.38
2019-04-29T07:09:22.909Z,16.45
2019-04-29T07:11:51.336Z,12.90
2019-04-29T07:14:19.747Z,15.48
2019-04-29T07:16:48.146Z,14.40
2019-04-29T07:19:16.658Z,15.23
2019-04-29T07:21:47.016Z,17.52
2019-04-29T07:24:15.403Z,16.07
2019-04-29T07:26:43.779Z,17.15
2019-04-29T07:29:12.366Z,15.90
2019-04-29T07:31:40.757Z,13.83
2019-04-29T07:34:10.029Z,16.17
2019-04-29T07:36:38.419Z,15.80
2019-04-29T07:39:07.815Z,15.05
2019-04-29T07:41:36.265Z,16.05
2019-04-29T07:44:04.995Z,14.98
2019-04-29T07:46:55.145Z,15.53
2019-04-29T07:49:05.833Z,16.30
2019-04-29T07:51:38.915Z,13.43
2019-04-29T07:54:04.971Z,14.45
2019-04-29T07:56:33.561Z,12.07
2019-04-29T07:59:03.075Z,12.13
2019-04-29T08:01:32.134Z,16.27
2019-04-29T08:04:00.555Z,18.27
2019-04-29T08:06:29.673Z,15.60
2019-04-29T08:09:07.459Z,19.48
2019-04-29T08:11:31.485Z,18.40
2019-04-29T08:14:01.729Z,21.70
2019-04-29T08:16:30.371Z,25.88
2019-04-29T08:18:58.874Z,22.58
2019-04-29T08:21:30.343Z,23.22
2019-04-29T08:23:58.783Z,28.30
2019-04-29T08:26:27.185Z,29.40
2019-04-29T08:29:00.456Z,32.58
2019-04-29T08:31:26.042Z,29.92
2019-04-29T08:33:56.120Z,27.87
2019-04-29T08:36:24.657Z,30.27
2019-04-29T08:38:53.055Z,27.25
2019-04-29T08:41:28.593Z,25.88
2019-04-29T08:43:57.808Z,26.62
2019-04-29T08:46:25.464Z,29.72
2019-04-29T08:48:53.878Z,29.80
2019-04-29T08:51:23.865Z,31.77
2019-04-29T08:53:52.425Z,27.93
2019-04-29T08:56:20.903Z,27.45
2019-04-29T08:58:51.046Z,26.67
2019-04-29T09:01:19.447Z,27.70
2019-04-29T09:03:47.906Z,26.77
2019-04-29T09:06:16.324Z,25.23
2019-04-29T09:08:54.498Z,25.35
2019-04-29T09:11:15.335Z,26.30
2019-04-29T09:13:43.732Z,24.63
2019-04-29T09:16:12.152Z,24.90
2019-04-29T09:18:40.617Z,23.15
2019-04-29T09:21:10.521Z,23.50
2019-04-29T09:23:38.904Z,21.15
2019-04-29T09:26:14.514Z,23.20
2019-04-29T09:28:43.101Z,21.82
2019-04-29T09:31:11.505Z,18.25
2019-04-29T09:33:44.268Z,18.30
2019-04-29T09:36:13.782Z,21.62
2019-04-29T09:38:40.297Z,19.05
2019-04-29T09:41:13.079Z,15.58
2019-04-29T09:43:59.181Z,15.48
2019-04-29T09:46:34.177Z,15.43
2019-04-29T09:49:00.065Z,18.00
2019-04-29T09:51:29.771Z,16.93
2019-04-29T09:53:58.442Z,13.27
2019-04-29T09:56:27.064Z,13.88
2019-04-29T09:59:13.124Z,14.47
2019-04-29T10:01:45.989Z,15.53
2019-04-29T10:04:22.053Z,11.50
2019-04-29T10:06:52.101Z,15.20
2019-04-29T10:09:21.060Z,11.25
2019-04-29T10:11:49.888Z,10.27
2019-04-29T10:14:18.417Z,15.27
2019-04-29T10:16:51.390Z,14.45
2019-04-29T10:19:23.324Z,13.08
2019-04-29T10:21:51.750Z,12.73
2019-04-29T10:24:20.130Z,14.30
2019-04-29T10:26:50.068Z,15.45
2019-04-29T10:29:20.378Z,15.03
2019-04-29T10:31:49.085Z,12.90
2019-04-29T10:34:18.332Z,11.60
2019-04-29T10:36:47.147Z,11.97
2019-04-29T10:39:33.736Z,11.73
2019-04-29T10:42:03.803Z,11.18
2019-04-29T10:44:39.528Z,12.35
2019-04-29T10:47:21.387Z,10.67
2019-04-29T10:49:57.435Z,18.60
2019-04-29T10:52:26.730Z,11.47
2019-04-29T10:54:56.543Z,12.68
2019-04-29T10:57:29.278Z,10.78
2019-04-29T11:00:17.021Z,7.97
2019-04-29T11:02:49.243Z,5.75
2019-04-29T11:05:19.107Z,10.87
2019-04-29T11:07:49.132Z,10.75
2019-04-29T11:10:26.161Z,8.65
2019-04-29T11:12:55.086Z,8.28
2019-04-29T11:15:28.450Z,8.73
2019-04-29T11:17:59.207Z,5.28
2019-04-29T11:20:26.672Z,8.13
2019-04-29T11:23:02.526Z,10.08
2019-04-29T11:25:32.707Z,8.03
2019-04-29T11:28:02.717Z,7.45
2019-04-29T11:30:34.841Z,7.05
2019-04-29T11:33:08.024Z,9.45
2019-04-29T11:35:43.893Z,8.98
2019-04-29T11:38:13.563Z,5.93
2019-04-29T11:40:44.191Z,8.53
2019-04-29T11:43:15.637Z,6.25
2019-04-29T11:45:44.287Z,6.78
2019-04-29T11:48:12.839Z,6.47
2019-04-29T11:50:45.170Z,6.83
2019-04-29T11:53:14.577Z,3.15
2019-04-29T11:55:46.264Z,3.52
2019-04-29T11:58:20.154Z,6.00
2019-04-29T12:01:10.391Z,4.93
2019-04-29T12:03:43.174Z,9.10
2019-04-29T12:06:16.348Z,4.95
2019-04-29T12:08:48.159Z,5.12
2019-04-29T12:11:19.173Z,5.45
2019-04-29T12:13:53.473Z,3.22
2019-04-29T12:16:24.520Z,5.67
2019-04-29T12:19:01.544Z,4.08
2019-04-29T12:21:34.337Z,5.40
2019-04-29T12:24:04.217Z,4.33
2019-04-29T12:26:34.998Z,4.72
2019-04-29T12:29:02.906Z,5.15
2019-04-29T12:31:37.217Z,9.43
2019-04-29T12:34:07.239Z,5.85
2019-04-29T12:36:48.269Z,6.58
2019-04-29T12:39:42.889Z,6.97
2019-04-29T12:42:04.521Z,2.30
2019-04-29T12:44:35.283Z,5.50
2019-04-29T12:47:26.624Z,4.65
2019-04-29T12:49:52.546Z,6.70
2019-04-29T12:52:21.187Z,7.25
2019-04-29T12:54:49.568Z,5.05
2019-04-29T12:57:18.936Z,6.92
2019-04-29T12:59:48.314Z,2.55
2019-04-29T13:02:24.443Z,5.83
2019-04-29T13:05:10.873Z,5.28
2019-04-29T13:07:49.852Z,7.83
2019-04-29T13:10:37.850Z,5.00
2019-04-29T13:13:06.310Z,7.50
2019-04-29T13:15:43.834Z,4.75
2019-04-29T13:18:23.075Z,6.37
2019-04-29T13:20:50.775Z,5.50
2019-04-29T13:23:24.398Z,10.32
2019-04-29T13:25:51.075Z,5.12
2019-04-29T13:28:29.499Z,7.57
2019-04-29T13:30:51.500Z,8.00
2019-04-29T13:33:19.892Z,8.60
2019-04-29T13:35:49.775Z,4.08
2019-04-29T13:38:18.123Z,5.20
2019-04-29T13:40:46.610Z,6.78
2019-04-29T13:43:15.157Z,5.35
2019-04-29T13:45:45.542Z,7.80
2019-04-29T13:48:31.886Z,8.83
2019-04-29T13:51:34.766Z,10.20
2019-04-29T13:53:48.700Z,4.58
2019-04-29T13:56:32.603Z,5.55
2019-04-29T13:58:47.339Z,7.58
2019-04-29T14:01:33.024Z,6.42
2019-04-29T14:03:59.088Z,5.97
2019-04-29T14:06:28.189Z,9.15
2019-04-29T14:08:59.949Z,3.72
2019-04-29T14:11:27.692Z,3.70
2019-04-29T14:13:56.351Z,7.80
2019-04-29T14:16:24.862Z,6.03
2019-04-29T14:18:53.266Z,8.53
2019-04-29T14:21:25.709Z,3.22
2019-04-29T14:23:52.182Z,6.75
2019-04-29T14:26:20.623Z,5.05
2019-04-29T14:28:49.132Z,5.00
2019-04-29T14:31:22.794Z,3.52
2019-04-29T14:34:00.370Z,4.62
2019-04-29T14:36:28.388Z,5.67
2019-04-29T14:38:58.363Z,5.20
2019-04-29T14:41:29.311Z,5.50
2019-04-29T14:44:11.254Z,2.50
2019-04-29T14:46:50.876Z,4.35
2019-04-29T14:49:23.489Z,2.50
2019-04-29T14:51:51.878Z,4.75
2019-04-29T14:54:22.012Z,4.25
2019-04-29T14:56:50.780Z,3.23
2019-04-29T14:59:19.505Z,2.47
2019-04-29T15:01:49.932Z,3.92
2019-04-29T15:04:20.009Z,7.63
2019-04-29T15:06:48.457Z,4.17
2019-04-29T15:09:19.650Z,3.90
2019-04-29T15:11:58.723Z,5.45
2019-04-29T15:14:31.135Z,5.10
2019-04-29T15:17:07.895Z,7.03
2019-04-29T15:22:35.781Z,3.70
2019-04-29T15:25:06.452Z,10.38
2019-04-29T15:27:34.879Z,5.50
2019-04-29T15:30:07.925Z,5.18
2019-04-29T15:32:36.381Z,6.50
2019-04-29T15:35:06.914Z,5.85
2019-04-29T15:37:35.345Z,8.90
2019-04-29T15:40:06.670Z,6.90
2019-04-29T15:42:38.034Z,8.38
2019-04-29T15:45:07.298Z,6.83
2019-04-29T15:47:35.710Z,7.85
2019-04-29T15:50:18.328Z,7.33
2019-04-29T15:52:35.950Z,7.20
2019-04-29T15:55:07.195Z,9.33
2019-04-29T15:57:36.057Z,5.53
2019-04-29T16:00:21.215Z,5.53
2019-04-29T16:02:41.525Z,4.73
2019-04-29T16:05:22.261Z,4.97
2019-04-29T16:07:58.243Z,8.80
2019-04-29T16:10:44.577Z,5.00
2019-04-29T16:13:14.257Z,12.18
2019-04-29T16:15:42.950Z,11.80
2019-04-29T16:18:14.845Z,8.93
2019-04-29T16:20:41.636Z,7.03
2019-04-29T16:23:11.766Z,11.12
2019-04-29T16:25:41.007Z,7.08
2019-04-29T16:28:10.509Z,5.20
2019-04-29T16:30:39.057Z,7.25
2019-04-29T16:33:14.354Z,4.10
2019-04-29T16:35:40.043Z,6.22
2019-04-29T16:40:41.896Z,9.78
2019-04-29T16:43:11.956Z,7.73
2019-04-29T16:48:33.278Z,10.08
2019-04-29T16:51:06.711Z,7.10
2019-04-29T16:53:32.096Z,9.93
2019-04-29T16:56:00.874Z,9.65
2019-04-29T16:58:29.329Z,15.03
2019-04-29T17:00:57.858Z,9.60
2019-04-29T17:03:26.310Z,7.95
2019-04-29T17:05:54.714Z,12.15
2019-04-29T17:08:24.824Z,15.32
2019-04-29T17:11:12.103Z,14.18
2019-04-29T17:13:37.474Z,13.22
2019-04-29T17:16:07.725Z,14.20
2019-04-29T17:18:36.136Z,18.07
2019-04-29T17:21:05.730Z,14.80
2019-04-29T17:23:35.122Z,16.32
2019-04-29T17:26:04.349Z,16.57
2019-04-29T17:28:50.764Z,14.75
2019-04-29T17:31:23.861Z,14.95
2019-04-29T17:33:54.700Z,11.18
2019-04-29T17:35:17.482Z,8.53
2019-04-29T17:36:25.718Z,16.07
2019-04-29T17:38:53.905Z,13.08
2019-04-29T17:41:22.309Z,11.93
2019-04-29T17:43:58.511Z,14.55
2019-04-29T17:46:44.865Z,13.07
2019-04-29T17:49:17.757Z,13.40
2019-04-29T17:51:46.158Z,10.53
2019-04-29T17:54:19.319Z,15.88
2019-04-29T17:57:03.664Z,12.03
2019-04-29T17:59:29.416Z,12.13
2019-04-29T18:01:55.783Z,12.05
2019-04-29T18:04:36.059Z,15.50
2019-04-29T18:07:18.513Z,13.20
2019-04-29T18:09:48.491Z,13.30
2019-04-29T18:12:18.652Z,19.70
2019-04-29T18:14:47.056Z,17.32
2019-04-29T18:17:24.285Z,18.00
2019-04-29T18:20:13.465Z,16.95
2019-04-29T18:22:54.864Z,18.62
2019-04-29T18:25:36.577Z,23.27
2019-04-29T18:28:05.196Z,25.60
2019-04-29T18:30:37.767Z,26.17
2019-04-29T18:33:05.353Z,16.85
2019-04-29T18:35:35.443Z,18.17
2019-04-29T18:38:07.548Z,18.73
2019-04-29T18:40:41.453Z,26.40
2019-04-29T18:43:05.027Z,18.87
2019-04-29T18:45:35.050Z,19.40
2019-04-29T18:48:08.989Z,20.62
2019-04-29T18:50:38.851Z,20.37
2019-04-29T18:53:06.906Z,20.60
2019-04-29T18:55:35.777Z,18.03
2019-04-29T18:58:05.808Z,19.48
2019-04-29T19:00:34.881Z,22.25
2019-04-29T19:03:06.435Z,17.87
2019-04-29T19:05:45.539Z,19.20
2019-04-29T19:08:19.097Z,19.10
2019-04-29T19:10:45.989Z,18.05
2019-04-29T19:13:16.691Z,21.40
2019-04-29T19:15:48.221Z,18.82
2019-04-29T19:18:17.511Z,19.95
2019-04-29T19:20:47.811Z,19.00
2019-04-29T19:23:16.082Z,19.80
2019-04-29T19:25:46.459Z,21.55
2019-04-29T19:28:25.302Z,17.23
2019-04-29T19:30:47.337Z,16.43
2019-04-29T19:33:15.739Z,19.60
2019-04-29T19:35:45.161Z,22.00
2019-04-29T19:38:15.630Z,19.55
2019-04-29T19:40:43.713Z,34.48
2019-04-29T19:43:15.382Z,42.00
2019-04-29T19:45:44.662Z,41.92
2019-04-29T19:48:12.739Z,42.43
2019-04-29T19:50:41.118Z,32.63
2019-04-29T19:53:11.142Z,27.13
2019-04-29T19:55:42.237Z,28.45
2019-04-29T19:58:12.446Z,32.05
2019-04-29T20:00:40.335Z,30.95
2019-04-29T20:03:20.466Z,31.80
2019-04-29T20:05:49.475Z,27.85
2019-04-29T20:08:37.868Z,26.07
2019-04-29T20:10:51.800Z,28.07
2019-04-29T20:13:30.587Z,29.82
2019-04-29T20:15:57.187Z,25.08
2019-04-29T20:18:58.347Z,30.45
2019-04-29T20:21:24.677Z,30.83
2019-04-29T20:23:48.017Z,33.20
2019-04-29T20:26:23.772Z,28.23
2019-04-29T20:28:51.084Z,31.23
2019-04-29T20:31:21.879Z,28.47
2019-04-29T20:33:48.751Z,23.42
2019-04-29T20:36:37.361Z,29.37
2019-04-29T20:38:48.039Z,33.95
2019-04-29T20:41:19.542Z,29.40
2019-04-29T20:43:46.919Z,37.55
2019-04-29T20:46:17.643Z,36.58
2019-04-29T20:48:45.954Z,36.25
2019-04-29T20:51:16.706Z,38.88
2019-04-29T20:53:47.721Z,44.67
2019-04-29T20:56:23.703Z,45.12
2019-04-29T20:58:46.965Z,44.30
2019-04-29T21:01:20.291Z,42.83
2019-04-29T21:03:52.312Z,41.25
2019-04-29T21:06:21.232Z,57.05
2019-04-29T21:08:52.178Z,45.33
2019-04-29T21:11:27.897Z,48.00
2019-04-29T21:14:05.479Z,45.28
2019-04-29T21:16:38.600Z,54.75
2019-04-29T21:19:08.989Z,49.20
2019-04-29T21:21:41.840Z,44.65
2019-04-29T21:24:14.097Z,49.38
2019-04-29T21:26:44.570Z,42.98
2019-04-29T21:29:10.691Z,44.60
2019-04-29T21:31:39.881Z,43.25
2019-04-29T21:34:08.302Z,56.07
2019-04-29T21:36:47.509Z,50.55
2019-04-29T21:39:25.154Z,56.83
2019-04-29T21:42:11.408Z,50.75
2019-04-29T21:44:39.958Z,55.58
2019-04-29T21:47:08.373Z,54.23
2019-04-29T21:49:44.954Z,53.42
2019-04-29T21:52:06.993Z,61.60
2019-04-29T21:54:35.451Z,85.30
2019-04-29T21:57:05.774Z,69.45
2019-04-29T21:59:35.738Z,81.77
2019-04-29T22:02:06.639Z,73.83
2019-04-29T22:04:37.389Z,77.22
2019-04-29T22:07:08.091Z,79.82
2019-04-29T22:09:40.497Z,94.83
2019-04-29T22:12:06.736Z,104.72
2019-04-29T22:14:35.277Z,85.92
2019-04-29T22:17:05.297Z,92.55
2019-04-29T22:19:35.078Z,79.90
2019-04-29T22:22:05.719Z,83.45
2019-04-29T22:24:35.659Z,90.92
2019-04-29T22:27:08.055Z,72.80
2019-04-29T22:29:38.968Z,92.02
2019-04-29T22:32:14.348Z,77.72
2019-04-29T22:34:40.210Z,83.92
2019-04-29T22:37:08.614Z,88.74
2019-04-29T22:39:37.008Z,85.50
2019-04-29T22:42:09.739Z,81.50
2019-04-29T22:44:38.261Z,87.30
2019-04-29T22:47:08.364Z,79.25
2019-04-29T22:49:36.763Z,78.62
2019-04-29T22:52:05.329Z,71.85
2019-04-29T22:54:35.316Z,69.20
2019-04-29T22:57:05.715Z,59.18
2019-04-29T22:59:35.370Z,68.85
2019-04-29T23:02:05.852Z,74.87
2019-04-29T23:04:35.082Z,77.08
2019-04-29T23:07:05.756Z,66.70
2019-04-29T23:09:36.561Z,65.50
2019-04-29T23:12:05.452Z,64.62
2019-04-29T23:14:36.022Z,67.32
2019-04-29T23:17:06.153Z,54.67
2019-04-29T23:19:35.088Z,60.70
2019-04-29T23:22:06.872Z,58.25
2019-04-29T23:24:55.749Z,55.58
2019-04-29T23:27:29.043Z,60.00
2019-04-29T23:29:59.560Z,54.57
2019-04-29T23:32:29.742Z,48.33
2019-04-29T23:35:01.683Z,47.75
2019-04-29T23:37:29.449Z,45.73
2019-04-29T23:39:58.171Z,42.25
2019-04-29T23:42:26.572Z,47.70
2019-04-29T23:44:56.987Z,54.45
2019-04-29T23:47:26.670Z,49.60
2019-04-29T23:49:55.082Z,45.60
2019-04-29T23:52:23.518Z,52.20
2019-04-29T23:54:53.715Z,47.58
2019-04-29T23:57:27.506Z,51.28
